sensor_id;sensor_type;location;lat;lon;timestamp;pressure;altitude;pressure_sealevel;temperature;humidity
23899;BME280;20544;50.018;20.010;2023-02-17T00:02:22;99379.91;;;3.37;100.00
23899;BME280;20544;50.018;20.010;2023-02-17T00:05:37;99377.17;;;3.28;100.00
23899;BME280;20544;50.018;20.010;2023-02-17T00:08:53;99382.41;;;3.28;100.00
23899;BME280;20544;50.018;20.010;2023-02-17T00:12:07;99378.25;;;3.25;100.00
23899;BME280;20544;50.018;20.010;2023-02-17T00:15:21;99375.02;;;3.21;100.00
23899;BME280;20544;50.018;20.010;2023-02-17T00:18:35;99382.33;;;3.18;100.00
23899;BME280;20544;50.018;20.010;2023-02-17T00:21:48;99374.08;;;3.22;100.00
23899;BME280;20544;50.018;20.010;2023-02-17T00:25:03;99377.55;;;3.23;100.00
23899;BME280;20544;50.018;20.010;2023-02-17T00:28:17;99371.11;;;3.16;100.00
23899;BME280;20544;50.018;20.010;2023-02-17T00:31:31;99369.67;;;3.00;100.00
23899;BME280;20544;50.018;20.010;2023-02-17T00:34:45;99372.80;;;2.94;100.00
23899;BME280;20544;50.018;20.010;2023-02-17T00:37:58;99371.47;;;2.88;100.00
23899;BME280;20544;50.018;20.010;2023-02-17T00:41:12;99367.04;;;2.78;100.00
23899;BME280;20544;50.018;20.010;2023-02-17T00:44:27;99360.95;;;2.54;100.00
23899;BME280;20544;50.018;20.010;2023-02-17T00:47:40;99361.75;;;2.43;100.00
23899;BME280;20544;50.018;20.010;2023-02-17T00:50:54;99355.42;;;2.35;100.00
23899;BME280;20544;50.018;20.010;2023-02-17T00:54:08;99351.38;;;2.31;100.00
23899;BME280;20544;50.018;20.010;2023-02-17T00:57:22;99332.31;;;2.29;100.00
23899;BME280;20544;50.018;20.010;2023-02-17T01:00:38;99334.48;;;2.35;100.00
23899;BME280;20544;50.018;20.010;2023-02-17T01:03:52;99332.22;;;2.41;100.00
23899;BME280;20544;50.018;20.010;2023-02-17T01:07:05;99330.33;;;2.43;100.00
23899;BME280;20544;50.018;20.010;2023-02-17T01:10:19;99331.05;;;2.46;100.00
23899;BME280;20544;50.018;20.010;2023-02-17T01:13:33;99333.42;;;2.49;100.00
23899;BME280;20544;50.018;20.010;2023-02-17T01:16:47;99323.91;;;2.59;100.00
23899;BME280;20544;50.018;20.010;2023-02-17T01:20:01;99321.07;;;2.62;100.00
23899;BME280;20544;50.018;20.010;2023-02-17T01:23:16;99312.73;;;2.57;100.00
23899;BME280;20544;50.018;20.010;2023-02-17T01:26:30;99308.06;;;2.49;100.00
23899;BME280;20544;50.018;20.010;2023-02-17T01:29:45;99303.32;;;2.43;100.00
23899;BME280;20544;50.018;20.010;2023-02-17T01:32:59;99296.50;;;2.40;100.00
23899;BME280;20544;50.018;20.010;2023-02-17T01:36:13;99284.85;;;2.33;100.00
23899;BME280;20544;50.018;20.010;2023-02-17T01:39:28;99291.86;;;2.33;100.00
23899;BME280;20544;50.018;20.010;2023-02-17T01:42:44;99288.64;;;2.40;100.00
23899;BME280;20544;50.018;20.010;2023-02-17T01:45:58;99281.84;;;2.26;100.00
23899;BME280;20544;50.018;20.010;2023-02-17T01:49:16;99276.36;;;2.07;100.00
23899;BME280;20544;50.018;20.010;2023-02-17T01:52:32;99264.80;;;1.98;100.00
23899;BME280;20544;50.018;20.010;2023-02-17T01:55:45;99261.17;;;1.88;100.00
23899;BME280;20544;50.018;20.010;2023-02-17T01:59:02;99255.73;;;1.91;100.00
23899;BME280;20544;50.018;20.010;2023-02-17T02:02:17;99267.35;;;1.87;100.00
23899;BME280;20544;50.018;20.010;2023-02-17T02:05:31;99268.66;;;1.81;100.00
23899;BME280;20544;50.018;20.010;2023-02-17T02:08:47;99260.56;;;1.84;100.00
23899;BME280;20544;50.018;20.010;2023-02-17T02:12:02;99256.22;;;1.96;100.00
23899;BME280;20544;50.018;20.010;2023-02-17T02:15:30;99266.10;;;2.04;100.00
23899;BME280;20544;50.018;20.010;2023-02-17T02:18:48;99265.38;;;2.02;100.00
23899;BME280;20544;50.018;20.010;2023-02-17T02:22:09;99262.73;;;1.90;100.00
23899;BME280;20544;50.018;20.010;2023-02-17T02:25:36;99251.87;;;1.72;100.00
23899;BME280;20544;50.018;20.010;2023-02-17T02:29:27;99265.55;;;1.76;100.00
23899;BME280;20544;50.018;20.010;2023-02-17T02:32:55;99256.16;;;1.73;100.00
23899;BME280;20544;50.018;20.010;2023-02-17T02:36:13;99256.61;;;1.67;100.00
23899;BME280;20544;50.018;20.010;2023-02-17T02:39:29;99267.07;;;1.67;100.00
23899;BME280;20544;50.018;20.010;2023-02-17T02:42:45;99264.05;;;1.60;100.00
23899;BME280;20544;50.018;20.010;2023-02-17T02:45:59;99264.29;;;1.57;100.00
23899;BME280;20544;50.018;20.010;2023-02-17T02:49:14;99268.13;;;1.40;100.00
23899;BME280;20544;50.018;20.010;2023-02-17T02:52:29;99261.66;;;1.33;100.00
23899;BME280;20544;50.018;20.010;2023-02-17T02:55:47;99252.73;;;1.49;100.00
23899;BME280;20544;50.018;20.010;2023-02-17T02:59:05;99255.75;;;1.67;100.00
23899;BME280;20544;50.018;20.010;2023-02-17T03:02:26;99255.34;;;1.84;100.00
23899;BME280;20544;50.018;20.010;2023-02-17T03:05:43;99251.22;;;2.04;100.00
23899;BME280;20544;50.018;20.010;2023-02-17T03:08:59;99254.46;;;2.19;100.00
23899;BME280;20544;50.018;20.010;2023-02-17T03:12:16;99257.22;;;2.29;100.00
23899;BME280;20544;50.018;20.010;2023-02-17T03:15:31;99251.17;;;2.40;100.00
23899;BME280;20544;50.018;20.010;2023-02-17T03:18:45;99251.64;;;2.45;100.00
23899;BME280;20544;50.018;20.010;2023-02-17T03:22:00;99253.79;;;2.51;100.00
23899;BME280;20544;50.018;20.010;2023-02-17T03:25:18;99246.41;;;2.56;100.00
23899;BME280;20544;50.018;20.010;2023-02-17T03:28:32;99247.35;;;2.55;100.00
23899;BME280;20544;50.018;20.010;2023-02-17T03:31:48;99249.88;;;2.57;100.00
23899;BME280;20544;50.018;20.010;2023-02-17T03:35:02;99252.84;;;2.64;100.00
23899;BME280;20544;50.018;20.010;2023-02-17T03:38:17;99248.07;;;2.69;100.00
23899;BME280;20544;50.018;20.010;2023-02-17T03:41:31;99242.02;;;2.68;100.00
23899;BME280;20544;50.018;20.010;2023-02-17T03:44:45;99244.63;;;2.68;100.00
23899;BME280;20544;50.018;20.010;2023-02-17T03:47:58;99243.78;;;2.68;100.00
23899;BME280;20544;50.018;20.010;2023-02-17T03:51:13;99238.33;;;2.59;100.00
23899;BME280;20544;50.018;20.010;2023-02-17T03:54:28;99235.93;;;2.45;100.00
23899;BME280;20544;50.018;20.010;2023-02-17T03:57:42;99230.95;;;2.42;100.00
23899;BME280;20544;50.018;20.010;2023-02-17T04:00:55;99239.63;;;2.42;100.00
23899;BME280;20544;50.018;20.010;2023-02-17T04:04:09;99225.71;;;2.42;100.00
23899;BME280;20544;50.018;20.010;2023-02-17T04:07:23;99227.95;;;2.47;100.00
23899;BME280;20544;50.018;20.010;2023-02-17T04:10:36;99225.11;;;2.50;100.00
23899;BME280;20544;50.018;20.010;2023-02-17T04:13:50;99217.00;;;2.53;100.00
23899;BME280;20544;50.018;20.010;2023-02-17T04:17:04;99226.30;;;2.57;100.00
23899;BME280;20544;50.018;20.010;2023-02-17T04:20:18;99216.42;;;2.61;100.00
23899;BME280;20544;50.018;20.010;2023-02-17T04:23:32;99214.41;;;2.64;100.00
23899;BME280;20544;50.018;20.010;2023-02-17T04:26:49;99222.83;;;2.68;100.00
23899;BME280;20544;50.018;20.010;2023-02-17T04:30:03;99228.44;;;2.74;100.00
23899;BME280;20544;50.018;20.010;2023-02-17T04:33:18;99220.58;;;2.74;100.00
23899;BME280;20544;50.018;20.010;2023-02-17T04:36:32;99218.91;;;2.73;100.00
23899;BME280;20544;50.018;20.010;2023-02-17T04:39:47;99210.91;;;2.75;100.00
23899;BME280;20544;50.018;20.010;2023-02-17T04:43:01;99210.56;;;2.80;100.00
23899;BME280;20544;50.018;20.010;2023-02-17T04:46:15;99199.27;;;2.79;100.00
23899;BME280;20544;50.018;20.010;2023-02-17T04:49:29;99202.34;;;2.84;100.00
23899;BME280;20544;50.018;20.010;2023-02-17T04:52:43;99191.47;;;2.89;100.00
23899;BME280;20544;50.018;20.010;2023-02-17T04:55:56;99200.05;;;2.91;100.00
23899;BME280;20544;50.018;20.010;2023-02-17T04:59:10;99212.67;;;2.97;100.00
23899;BME280;20544;50.018;20.010;2023-02-17T05:02:24;99209.92;;;2.99;100.00
23899;BME280;20544;50.018;20.010;2023-02-17T05:05:38;99202.78;;;3.01;100.00
23899;BME280;20544;50.018;20.010;2023-02-17T05:08:51;99206.12;;;3.03;100.00
23899;BME280;20544;50.018;20.010;2023-02-17T05:12:05;99216.21;;;3.07;100.00
23899;BME280;20544;50.018;20.010;2023-02-17T05:15:19;99209.07;;;3.10;100.00
23899;BME280;20544;50.018;20.010;2023-02-17T05:18:33;99202.74;;;3.12;100.00
23899;BME280;20544;50.018;20.010;2023-02-17T05:21:46;99202.42;;;3.05;100.00
23899;BME280;20544;50.018;20.010;2023-02-17T05:25:01;99197.05;;;3.07;100.00
23899;BME280;20544;50.018;20.010;2023-02-17T05:28:15;99198.58;;;3.10;100.00
23899;BME280;20544;50.018;20.010;2023-02-17T05:31:29;99194.30;;;3.08;100.00
23899;BME280;20544;50.018;20.010;2023-02-17T05:34:42;99193.47;;;3.08;100.00
23899;BME280;20544;50.018;20.010;2023-02-17T05:37:56;99192.75;;;3.06;100.00
23899;BME280;20544;50.018;20.010;2023-02-17T05:41:10;99192.63;;;3.07;100.00
23899;BME280;20544;50.018;20.010;2023-02-17T05:44:24;99195.14;;;3.09;100.00
23899;BME280;20544;50.018;20.010;2023-02-17T05:47:37;99201.08;;;3.11;100.00
23899;BME280;20544;50.018;20.010;2023-02-17T05:50:51;99209.20;;;3.08;100.00
23899;BME280;20544;50.018;20.010;2023-02-17T05:54:05;99207.66;;;3.05;100.00
23899;BME280;20544;50.018;20.010;2023-02-17T05:57:18;99205.98;;;3.04;100.00
23899;BME280;20544;50.018;20.010;2023-02-17T06:00:33;99198.00;;;3.06;100.00
23899;BME280;20544;50.018;20.010;2023-02-17T06:03:47;99187.05;;;3.01;100.00
23899;BME280;20544;50.018;20.010;2023-02-17T06:07:02;99197.89;;;2.96;100.00
23899;BME280;20544;50.018;20.010;2023-02-17T06:13:29;99181.71;;;2.91;100.00
23899;BME280;20544;50.018;20.010;2023-02-17T06:16:43;99179.32;;;2.99;100.00
23899;BME280;20544;50.018;20.010;2023-02-17T06:19:56;99170.84;;;3.07;100.00
23899;BME280;20544;50.018;20.010;2023-02-17T06:23:10;99162.61;;;3.12;100.00
23899;BME280;20544;50.018;20.010;2023-02-17T06:26:26;99162.11;;;3.18;100.00
23899;BME280;20544;50.018;20.010;2023-02-17T06:29:40;99168.63;;;3.23;100.00
23899;BME280;20544;50.018;20.010;2023-02-17T06:32:53;99163.14;;;3.27;100.00
23899;BME280;20544;50.018;20.010;2023-02-17T06:36:08;99156.36;;;3.24;100.00
23899;BME280;20544;50.018;20.010;2023-02-17T06:39:22;99146.93;;;3.21;100.00
23899;BME280;20544;50.018;20.010;2023-02-17T06:42:35;99149.23;;;3.15;100.00
23899;BME280;20544;50.018;20.010;2023-02-17T06:45:49;99146.02;;;3.11;100.00
23899;BME280;20544;50.018;20.010;2023-02-17T06:49:03;99144.98;;;3.02;100.00
23899;BME280;20544;50.018;20.010;2023-02-17T06:52:17;99150.09;;;3.04;100.00
23899;BME280;20544;50.018;20.010;2023-02-17T06:55:30;99155.83;;;3.09;100.00
23899;BME280;20544;50.018;20.010;2023-02-17T06:58:45;99150.19;;;3.14;100.00
23899;BME280;20544;50.018;20.010;2023-02-17T07:01:58;99158.05;;;3.14;100.00
23899;BME280;20544;50.018;20.010;2023-02-17T07:05:13;99163.51;;;3.22;100.00
23899;BME280;20544;50.018;20.010;2023-02-17T07:08:29;99168.89;;;3.20;100.00
23899;BME280;20544;50.018;20.010;2023-02-17T07:11:43;99168.13;;;3.30;100.00
23899;BME280;20544;50.018;20.010;2023-02-17T07:14:56;99170.69;;;3.41;100.00
23899;BME280;20544;50.018;20.010;2023-02-17T07:18:13;99180.17;;;3.53;100.00
23899;BME280;20544;50.018;20.010;2023-02-17T07:21:27;99178.34;;;3.65;100.00
23899;BME280;20544;50.018;20.010;2023-02-17T07:24:40;99184.03;;;3.70;100.00
23899;BME280;20544;50.018;20.010;2023-02-17T07:27:54;99180.89;;;3.77;100.00
23899;BME280;20544;50.018;20.010;2023-02-17T07:31:08;99172.31;;;3.75;100.00
23899;BME280;20544;50.018;20.010;2023-02-17T07:34:23;99165.28;;;3.75;100.00
23899;BME280;20544;50.018;20.010;2023-02-17T07:37:38;99168.93;;;3.84;100.00
23899;BME280;20544;50.018;20.010;2023-02-17T07:40:51;99177.41;;;3.97;100.00
23899;BME280;20544;50.018;20.010;2023-02-17T07:44:05;99178.31;;;4.08;100.00
23899;BME280;20544;50.018;20.010;2023-02-17T07:47:20;99170.46;;;4.17;100.00
23899;BME280;20544;50.018;20.010;2023-02-17T07:50:34;99168.98;;;4.25;100.00
23899;BME280;20544;50.018;20.010;2023-02-17T07:53:47;99160.71;;;4.29;100.00
23899;BME280;20544;50.018;20.010;2023-02-17T07:57:02;99143.72;;;4.33;100.00
23899;BME280;20544;50.018;20.010;2023-02-17T08:00:16;99143.19;;;4.40;100.00
23899;BME280;20544;50.018;20.010;2023-02-17T08:03:30;99140.17;;;4.44;100.00
23899;BME280;20544;50.018;20.010;2023-02-17T08:06:44;99130.65;;;4.53;100.00
23899;BME280;20544;50.018;20.010;2023-02-17T08:09:58;99134.02;;;4.65;100.00
23899;BME280;20544;50.018;20.010;2023-02-17T08:13:26;99126.83;;;4.77;100.00
23899;BME280;20544;50.018;20.010;2023-02-17T08:16:39;99129.19;;;4.90;100.00
23899;BME280;20544;50.018;20.010;2023-02-17T08:19:53;99119.64;;;4.98;100.00
23899;BME280;20544;50.018;20.010;2023-02-17T08:23:09;99122.84;;;5.12;100.00
23899;BME280;20544;50.018;20.010;2023-02-17T08:26:23;99106.80;;;5.25;100.00
23899;BME280;20544;50.018;20.010;2023-02-17T08:29:37;99107.31;;;5.38;100.00
23899;BME280;20544;50.018;20.010;2023-02-17T08:32:51;99109.36;;;5.64;100.00
23899;BME280;20544;50.018;20.010;2023-02-17T08:36:06;99114.01;;;5.90;100.00
23899;BME280;20544;50.018;20.010;2023-02-17T08:39:23;99108.10;;;6.15;100.00
23899;BME280;20544;50.018;20.010;2023-02-17T08:42:37;99115.06;;;6.44;100.00
23899;BME280;20544;50.018;20.010;2023-02-17T08:45:51;99121.42;;;6.70;100.00
23899;BME280;20544;50.018;20.010;2023-02-17T08:49:06;99101.55;;;6.93;100.00
23899;BME280;20544;50.018;20.010;2023-02-17T08:52:20;99105.71;;;7.14;100.00
23899;BME280;20544;50.018;20.010;2023-02-17T08:55:35;99097.67;;;7.42;100.00
23899;BME280;20544;50.018;20.010;2023-02-17T08:58:50;99098.01;;;7.65;100.00
23899;BME280;20544;50.018;20.010;2023-02-17T09:02:05;99094.16;;;7.86;100.00
23899;BME280;20544;50.018;20.010;2023-02-17T09:05:21;99098.88;;;8.08;100.00
23899;BME280;20544;50.018;20.010;2023-02-17T09:08:35;99102.77;;;8.22;100.00
23899;BME280;20544;50.018;20.010;2023-02-17T09:11:49;99093.06;;;8.31;100.00
23899;BME280;20544;50.018;20.010;2023-02-17T09:15:05;99090.90;;;8.35;100.00
23899;BME280;20544;50.018;20.010;2023-02-17T09:18:19;99086.13;;;8.38;100.00
23899;BME280;20544;50.018;20.010;2023-02-17T09:21:34;99086.29;;;8.37;100.00
23899;BME280;20544;50.018;20.010;2023-02-17T09:24:47;99088.77;;;8.38;100.00
23899;BME280;20544;50.018;20.010;2023-02-17T09:28:01;99073.58;;;8.40;100.00
23899;BME280;20544;50.018;20.010;2023-02-17T09:31:16;99071.11;;;8.39;100.00
23899;BME280;20544;50.018;20.010;2023-02-17T09:34:32;99074.09;;;8.44;100.00
23899;BME280;20544;50.018;20.010;2023-02-17T09:37:47;99071.45;;;8.44;100.00
23899;BME280;20544;50.018;20.010;2023-02-17T09:41:03;99061.86;;;8.43;100.00
23899;BME280;20544;50.018;20.010;2023-02-17T09:44:20;99071.14;;;8.47;100.00
23899;BME280;20544;50.018;20.010;2023-02-17T09:47:36;99055.42;;;8.46;100.00
23899;BME280;20544;50.018;20.010;2023-02-17T09:50:52;99051.83;;;8.47;100.00
23899;BME280;20544;50.018;20.010;2023-02-17T09:54:11;99045.83;;;8.45;100.00
23899;BME280;20544;50.018;20.010;2023-02-17T09:57:28;99052.50;;;8.49;100.00
23899;BME280;20544;50.018;20.010;2023-02-17T10:00:45;99056.30;;;8.46;100.00
23899;BME280;20544;50.018;20.010;2023-02-17T10:04:01;99058.94;;;8.46;100.00
23899;BME280;20544;50.018;20.010;2023-02-17T10:07:23;99066.88;;;8.46;100.00
23899;BME280;20544;50.018;20.010;2023-02-17T10:10:39;99062.03;;;8.41;100.00
23899;BME280;20544;50.018;20.010;2023-02-17T10:13:56;99049.13;;;8.38;100.00
23899;BME280;20544;50.018;20.010;2023-02-17T10:17:14;99043.19;;;8.36;100.00
23899;BME280;20544;50.018;20.010;2023-02-17T10:20:31;99035.77;;;8.40;100.00
23899;BME280;20544;50.018;20.010;2023-02-17T10:23:46;99035.09;;;8.38;100.00
23899;BME280;20544;50.018;20.010;2023-02-17T10:27:05;99032.61;;;8.45;100.00
23899;BME280;20544;50.018;20.010;2023-02-17T10:30:36;99028.17;;;8.45;100.00
23899;BME280;20544;50.018;20.010;2023-02-17T10:33:52;99020.24;;;8.45;100.00
23899;BME280;20544;50.018;20.010;2023-02-17T10:37:11;99018.95;;;8.49;100.00
23899;BME280;20544;50.018;20.010;2023-02-17T10:40:27;99012.68;;;8.50;100.00
23899;BME280;20544;50.018;20.010;2023-02-17T10:43:42;99009.36;;;8.48;100.00
23899;BME280;20544;50.018;20.010;2023-02-17T10:47:00;99000.45;;;8.49;100.00
23899;BME280;20544;50.018;20.010;2023-02-17T10:50:16;98999.77;;;8.47;100.00
23899;BME280;20544;50.018;20.010;2023-02-17T10:53:32;98996.45;;;8.45;100.00
23899;BME280;20544;50.018;20.010;2023-02-17T10:56:47;98992.34;;;8.51;100.00
23899;BME280;20544;50.018;20.010;2023-02-17T11:00:03;98986.41;;;8.49;100.00
23899;BME280;20544;50.018;20.010;2023-02-17T11:03:19;98979.80;;;8.53;100.00
23899;BME280;20544;50.018;20.010;2023-02-17T11:06:37;98976.17;;;8.54;100.00
23899;BME280;20544;50.018;20.010;2023-02-17T11:09:55;98974.69;;;8.51;100.00
23899;BME280;20544;50.018;20.010;2023-02-17T11:13:25;98971.20;;;8.51;100.00
23899;BME280;20544;50.018;20.010;2023-02-17T11:16:41;98975.79;;;8.40;100.00
23899;BME280;20544;50.018;20.010;2023-02-17T11:19:58;98959.80;;;8.50;100.00
23899;BME280;20544;50.018;20.010;2023-02-17T11:23:23;98950.67;;;8.45;100.00
23899;BME280;20544;50.018;20.010;2023-02-17T11:26:37;98951.19;;;8.40;100.00
23899;BME280;20544;50.018;20.010;2023-02-17T11:29:51;98942.73;;;8.28;100.00
23899;BME280;20544;50.018;20.010;2023-02-17T11:33:12;98947.52;;;8.24;100.00
23899;BME280;20544;50.018;20.010;2023-02-17T11:36:29;98941.72;;;8.21;100.00
23899;BME280;20544;50.018;20.010;2023-02-17T11:39:44;98944.70;;;8.18;100.00
23899;BME280;20544;50.018;20.010;2023-02-17T11:43:00;98942.17;;;8.00;100.00
23899;BME280;20544;50.018;20.010;2023-02-17T11:46:19;98937.23;;;7.97;100.00
23899;BME280;20544;50.018;20.010;2023-02-17T11:49:37;98940.84;;;7.96;100.00
23899;BME280;20544;50.018;20.010;2023-02-17T11:53:06;98925.34;;;8.01;100.00
23899;BME280;20544;50.018;20.010;2023-02-17T11:56:24;98904.55;;;8.06;100.00
23899;BME280;20544;50.018;20.010;2023-02-17T11:59:48;98906.20;;;8.07;100.00
23899;BME280;20544;50.018;20.010;2023-02-17T12:07:05;98885.40;;;8.12;100.00
23899;BME280;20544;50.018;20.010;2023-02-17T12:10:41;98885.57;;;8.10;100.00
23899;BME280;20544;50.018;20.010;2023-02-17T12:14:02;98888.72;;;8.14;100.00
23899;BME280;20544;50.018;20.010;2023-02-17T12:17:24;98874.19;;;8.10;100.00
23899;BME280;20544;50.018;20.010;2023-02-17T12:20:44;98877.47;;;8.12;100.00
23899;BME280;20544;50.018;20.010;2023-02-17T12:24:00;98883.77;;;8.19;100.00
23899;BME280;20544;50.018;20.010;2023-02-17T12:27:21;98880.81;;;8.22;100.00
23899;BME280;20544;50.018;20.010;2023-02-17T12:30:42;98868.41;;;8.23;100.00
23899;BME280;20544;50.018;20.010;2023-02-17T12:34:05;98876.84;;;8.26;100.00
23899;BME280;20544;50.018;20.010;2023-02-17T12:37:22;98876.34;;;8.39;100.00
23899;BME280;20544;50.018;20.010;2023-02-17T12:40:38;98873.20;;;8.44;100.00
23899;BME280;20544;50.018;20.010;2023-02-17T12:43:54;98866.93;;;8.45;100.00
23899;BME280;20544;50.018;20.010;2023-02-17T12:47:11;98865.80;;;8.48;100.00
23899;BME280;20544;50.018;20.010;2023-02-17T12:50:26;98859.00;;;8.53;100.00
23899;BME280;20544;50.018;20.010;2023-02-17T12:53:45;98850.75;;;8.56;100.00
23899;BME280;20544;50.018;20.010;2023-02-17T12:57:11;98847.80;;;8.51;100.00
23899;BME280;20544;50.018;20.010;2023-02-17T13:00:26;98848.78;;;8.58;100.00
23899;BME280;20544;50.018;20.010;2023-02-17T13:03:43;98842.83;;;8.56;100.00
23899;BME280;20544;50.018;20.010;2023-02-17T13:07:01;98844.83;;;8.46;100.00
23899;BME280;20544;50.018;20.010;2023-02-17T13:10:27;98841.17;;;8.47;100.00
23899;BME280;20544;50.018;20.010;2023-02-17T13:13:41;98852.09;;;8.52;100.00
23899;BME280;20544;50.018;20.010;2023-02-17T13:16:55;98843.81;;;8.55;100.00
23899;BME280;20544;50.018;20.010;2023-02-17T13:20:35;98833.23;;;8.55;100.00
23899;BME280;20544;50.018;20.010;2023-02-17T13:24:01;98832.88;;;8.42;100.00
23899;BME280;20544;50.018;20.010;2023-02-17T13:27:32;98827.42;;;8.43;100.00
23899;BME280;20544;50.018;20.010;2023-02-17T13:30:51;98816.04;;;8.43;100.00
23899;BME280;20544;50.018;20.010;2023-02-17T13:34:08;98810.75;;;8.43;100.00
23899;BME280;20544;50.018;20.010;2023-02-17T13:37:35;98816.56;;;8.47;100.00
23899;BME280;20544;50.018;20.010;2023-02-17T13:40:51;98806.13;;;8.45;100.00
23899;BME280;20544;50.018;20.010;2023-02-17T13:44:23;98805.98;;;8.47;100.00
23899;BME280;20544;50.018;20.010;2023-02-17T13:47:47;98793.23;;;8.42;100.00
23899;BME280;20544;50.018;20.010;2023-02-17T13:51:03;98799.05;;;8.37;100.00
23899;BME280;20544;50.018;20.010;2023-02-17T13:54:21;98789.61;;;8.35;100.00
23899;BME280;20544;50.018;20.010;2023-02-17T13:57:37;98783.69;;;8.33;100.00
23899;BME280;20544;50.018;20.010;2023-02-17T14:00:51;98774.10;;;8.40;100.00
23899;BME280;20544;50.018;20.010;2023-02-17T14:04:20;98780.86;;;8.34;100.00
23899;BME280;20544;50.018;20.010;2023-02-17T14:07:56;98762.55;;;8.33;100.00
23899;BME280;20544;50.018;20.010;2023-02-17T14:11:13;98741.58;;;8.31;100.00
23899;BME280;20544;50.018;20.010;2023-02-17T14:14:30;98755.42;;;8.33;100.00
23899;BME280;20544;50.018;20.010;2023-02-17T14:17:46;98748.83;;;8.37;100.00
23899;BME280;20544;50.018;20.010;2023-02-17T14:21:03;98737.91;;;8.40;100.00
23899;BME280;20544;50.018;20.010;2023-02-17T14:24:24;98734.59;;;8.38;100.00
23899;BME280;20544;50.018;20.010;2023-02-17T14:27:43;98722.23;;;8.39;100.00
23899;BME280;20544;50.018;20.010;2023-02-17T14:31:06;98729.80;;;8.42;100.00
23899;BME280;20544;50.018;20.010;2023-02-17T14:34:26;98715.78;;;8.41;100.00
23899;BME280;20544;50.018;20.010;2023-02-17T14:37:41;98711.64;;;8.47;100.00
23899;BME280;20544;50.018;20.010;2023-02-17T14:40:56;98709.48;;;8.51;100.00
23899;BME280;20544;50.018;20.010;2023-02-17T14:44:11;98703.86;;;8.46;100.00
23899;BME280;20544;50.018;20.010;2023-02-17T14:47:29;98698.28;;;8.49;100.00
23899;BME280;20544;50.018;20.010;2023-02-17T14:50:45;98694.80;;;8.48;100.00
23899;BME280;20544;50.018;20.010;2023-02-17T14:54:01;98693.48;;;8.52;100.00
23899;BME280;20544;50.018;20.010;2023-02-17T14:57:18;98681.06;;;8.45;100.00
23899;BME280;20544;50.018;20.010;2023-02-17T15:00:34;98686.87;;;8.48;100.00
23899;BME280;20544;50.018;20.010;2023-02-17T15:03:51;98686.23;;;8.46;100.00
23899;BME280;20544;50.018;20.010;2023-02-17T15:07:07;98681.41;;;8.41;100.00
23899;BME280;20544;50.018;20.010;2023-02-17T15:10:25;98683.75;;;8.36;100.00
23899;BME280;20544;50.018;20.010;2023-02-17T15:13:43;98666.25;;;8.27;100.00
23899;BME280;20544;50.018;20.010;2023-02-17T15:16:57;98661.63;;;8.29;100.00
23899;BME280;20544;50.018;20.010;2023-02-17T15:20:11;98658.33;;;8.27;100.00
23899;BME280;20544;50.018;20.010;2023-02-17T15:23:29;98656.72;;;8.18;100.00
23899;BME280;20544;50.018;20.010;2023-02-17T15:26:44;98641.04;;;8.16;100.00
23899;BME280;20544;50.018;20.010;2023-02-17T15:30:01;98648.63;;;8.11;100.00
23899;BME280;20544;50.018;20.010;2023-02-17T15:33:16;98640.38;;;8.06;100.00
23899;BME280;20544;50.018;20.010;2023-02-17T15:36:31;98638.41;;;8.00;100.00
23899;BME280;20544;50.018;20.010;2023-02-17T15:39:48;98626.73;;;7.94;100.00
23899;BME280;20544;50.018;20.010;2023-02-17T15:46:14;98602.61;;;7.97;100.00
23899;BME280;20544;50.018;20.010;2023-02-17T15:49:33;98598.35;;;7.88;100.00
23899;BME280;20544;50.018;20.010;2023-02-17T15:52:47;98597.69;;;7.77;100.00
23899;BME280;20544;50.018;20.010;2023-02-17T15:56:01;98587.34;;;7.68;100.00
23899;BME280;20544;50.018;20.010;2023-02-17T15:59:18;98581.25;;;7.59;100.00
23899;BME280;20544;50.018;20.010;2023-02-17T16:02:34;98570.20;;;7.55;100.00
23899;BME280;20544;50.018;20.010;2023-02-17T16:05:50;98569.22;;;7.56;100.00
23899;BME280;20544;50.018;20.010;2023-02-17T16:09:04;98552.89;;;7.53;100.00
23899;BME280;20544;50.018;20.010;2023-02-17T16:12:20;98545.78;;;7.45;100.00
23899;BME280;20544;50.018;20.010;2023-02-17T16:15:49;98540.68;;;7.43;100.00
23899;BME280;20544;50.018;20.010;2023-02-17T16:19:05;98537.23;;;7.43;100.00
23899;BME280;20544;50.018;20.010;2023-02-17T16:22:21;98537.72;;;7.47;100.00
23899;BME280;20544;50.018;20.010;2023-02-17T16:25:35;98533.08;;;7.49;100.00
23899;BME280;20544;50.018;20.010;2023-02-17T16:28:50;98524.17;;;7.50;100.00
23899;BME280;20544;50.018;20.010;2023-02-17T16:32:04;98527.13;;;7.55;100.00
23899;BME280;20544;50.018;20.010;2023-02-17T16:35:19;98507.49;;;7.57;100.00
23899;BME280;20544;50.018;20.010;2023-02-17T16:38:34;98514.25;;;7.60;100.00
23899;BME280;20544;50.018;20.010;2023-02-17T16:41:48;98516.39;;;7.65;100.00
23899;BME280;20544;50.018;20.010;2023-02-17T16:45:04;98514.23;;;7.68;100.00
23899;BME280;20544;50.018;20.010;2023-02-17T16:48:23;98503.81;;;7.75;100.00
23899;BME280;20544;50.018;20.010;2023-02-17T16:51:42;98505.13;;;7.79;100.00
23899;BME280;20544;50.018;20.010;2023-02-17T16:55:04;98500.34;;;7.83;100.00
23899;BME280;20544;50.018;20.010;2023-02-17T16:58:17;98501.81;;;7.85;100.00
23899;BME280;20544;50.018;20.010;2023-02-17T17:01:33;98490.09;;;7.88;100.00
23899;BME280;20544;50.018;20.010;2023-02-17T17:04:48;98494.70;;;7.86;100.00
23899;BME280;20544;50.018;20.010;2023-02-17T17:08:02;98487.63;;;7.86;100.00
23899;BME280;20544;50.018;20.010;2023-02-17T17:11:17;98487.27;;;7.89;100.00
23899;BME280;20544;50.018;20.010;2023-02-17T17:14:36;98469.44;;;7.91;100.00
23899;BME280;20544;50.018;20.010;2023-02-17T17:17:54;98462.51;;;7.90;100.00